sensor_id;sensor_type;location;lat;lon;timestamp;P1;durP1;ratioP1;P2;durP2;ratioP2
71947;SDS011;59820;55.076;38.766;2022-08-01T00:01:13;18.20;;;10.50;;
71947;SDS011;59820;55.076;38.766;2022-08-01T00:03:39;15.80;;;9.50;;
71947;SDS011;59820;55.076;38.766;2022-08-01T00:06:05;14.80;;;8.77;;
71947;SDS011;59820;55.076;38.766;2022-08-01T00:08:31;14.77;;;9.00;;
71947;SDS011;59820;55.076;38.766;2022-08-01T00:10:57;15.77;;;9.30;;
71947;SDS011;59820;55.076;38.766;2022-08-01T00:13:23;17.57;;;8.87;;
71947;SDS011;59820;55.076;38.766;2022-08-01T00:15:49;15.20;;;8.32;;
71947;SDS011;59820;55.076;38.766;2022-08-01T00:18:15;12.52;;;7.65;;
71947;SDS011;59820;55.076;38.766;2022-08-01T00:20:41;14.47;;;8.37;;
71947;SDS011;59820;55.076;38.766;2022-08-01T00:23:07;12.70;;;8.15;;
71947;SDS011;59820;55.076;38.766;2022-08-01T00:25:32;13.07;;;8.70;;
71947;SDS011;59820;55.076;38.766;2022-08-01T00:27:59;15.20;;;9.23;;
71947;SDS011;59820;55.076;38.766;2022-08-01T00:30:25;18.55;;;9.80;;
71947;SDS011;59820;55.076;38.766;2022-08-01T00:32:51;16.73;;;9.32;;
71947;SDS011;59820;55.076;38.766;2022-08-01T00:35:17;13.63;;;8.30;;
71947;SDS011;59820;55.076;38.766;2022-08-01T00:37:43;17.00;;;8.68;;
71947;SDS011;59820;55.076;38.766;2022-08-01T00:40:09;14.70;;;8.83;;
71947;SDS011;59820;55.076;38.766;2022-08-01T00:42:37;17.70;;;9.27;;
71947;SDS011;59820;55.076;38.766;2022-08-01T00:45:03;14.38;;;8.43;;
71947;SDS011;59820;55.076;38.766;2022-08-01T00:47:29;14.10;;;9.40;;
71947;SDS011;59820;55.076;38.766;2022-08-01T00:49:55;14.90;;;9.60;;
71947;SDS011;59820;55.076;38.766;2022-08-01T00:52:21;17.60;;;9.50;;
71947;SDS011;59820;55.076;38.766;2022-08-01T00:54:48;14.82;;;9.23;;
71947;SDS011;59820;55.076;38.766;2022-08-01T00:57:14;13.60;;;9.30;;
71947;SDS011;59820;55.076;38.766;2022-08-01T00:59:39;16.33;;;9.70;;
71947;SDS011;59820;55.076;38.766;2022-08-01T01:02:06;13.95;;;8.93;;
71947;SDS011;59820;55.076;38.766;2022-08-01T01:04:32;19.67;;;9.25;;
71947;SDS011;59820;55.076;38.766;2022-08-01T01:17:38;16.85;;;9.20;;
71947;SDS011;59820;55.076;38.766;2022-08-01T01:20:08;13.23;;;8.70;;
71947;SDS011;59820;55.076;38.766;2022-08-01T01:22:57;16.52;;;8.60;;
71947;SDS011;59820;55.076;38.766;2022-08-01T01:25:40;15.25;;;9.63;;
71947;SDS011;59820;55.076;38.766;2022-08-01T01:28:20;15.88;;;8.63;;
71947;SDS011;59820;55.076;38.766;2022-08-01T01:30:56;13.75;;;9.30;;
71947;SDS011;59820;55.076;38.766;2022-08-01T01:33:25;15.87;;;9.20;;
71947;SDS011;59820;55.076;38.766;2022-08-01T01:36:00;15.77;;;9.15;;
71947;SDS011;59820;55.076;38.766;2022-08-01T01:38:32;14.80;;;8.68;;
71947;SDS011;59820;55.076;38.766;2022-08-01T01:41:02;16.48;;;9.18;;
71947;SDS011;59820;55.076;38.766;2022-08-01T01:43:30;15.77;;;9.07;;
71947;SDS011;59820;55.076;38.766;2022-08-01T01:45:58;15.03;;;9.40;;
71947;SDS011;59820;55.076;38.766;2022-08-01T01:48:26;17.15;;;9.23;;
71947;SDS011;59820;55.076;38.766;2022-08-01T01:50:54;16.98;;;9.70;;
71947;SDS011;59820;55.076;38.766;2022-08-01T01:53:21;18.48;;;9.88;;
71947;SDS011;59820;55.076;38.766;2022-08-01T01:55:51;17.58;;;8.80;;
71947;SDS011;59820;55.076;38.766;2022-08-01T01:58:19;15.83;;;8.90;;
71947;SDS011;59820;55.076;38.766;2022-08-01T02:00:47;17.00;;;9.27;;
71947;SDS011;59820;55.076;38.766;2022-08-01T02:03:15;14.52;;;9.13;;
71947;SDS011;59820;55.076;38.766;2022-08-01T02:05:42;14.50;;;9.38;;
71947;SDS011;59820;55.076;38.766;2022-08-01T02:08:09;16.52;;;9.10;;
71947;SDS011;59820;55.076;38.766;2022-08-01T02:10:38;19.00;;;9.63;;
71947;SDS011;59820;55.076;38.766;2022-08-01T02:13:06;15.00;;;9.18;;
71947;SDS011;59820;55.076;38.766;2022-08-01T02:15:35;17.30;;;9.50;;
71947;SDS011;59820;55.076;38.766;2022-08-01T02:18:05;16.88;;;8.50;;
71947;SDS011;59820;55.076;38.766;2022-08-01T02:20:33;16.48;;;8.65;;
71947;SDS011;59820;55.076;38.766;2022-08-01T02:23:07;16.93;;;9.37;;
71947;SDS011;59820;55.076;38.766;2022-08-01T02:25:48;16.17;;;8.93;;
71947;SDS011;59820;55.076;38.766;2022-08-01T02:28:24;16.20;;;8.43;;
71947;SDS011;59820;55.076;38.766;2022-08-01T02:30:56;17.33;;;9.02;;
71947;SDS011;59820;55.076;38.766;2022-08-01T02:33:30;17.27;;;9.15;;
71947;SDS011;59820;55.076;38.766;2022-08-01T02:36:03;14.23;;;8.50;;
71947;SDS011;59820;55.076;38.766;2022-08-01T02:38:33;16.20;;;8.40;;
71947;SDS011;59820;55.076;38.766;2022-08-01T02:41:07;15.75;;;8.23;;
71947;SDS011;59820;55.076;38.766;2022-08-01T02:43:38;16.45;;;8.55;;
71947;SDS011;59820;55.076;38.766;2022-08-01T02:46:10;14.65;;;8.30;;
71947;SDS011;59820;55.076;38.766;2022-08-01T02:48:42;18.20;;;8.50;;
71947;SDS011;59820;55.076;38.766;2022-08-01T02:51:10;16.52;;;8.75;;
71947;SDS011;59820;55.076;38.766;2022-08-01T02:53:38;13.93;;;8.35;;
71947;SDS011;59820;55.076;38.766;2022-08-01T02:56:08;14.43;;;8.35;;
71947;SDS011;59820;55.076;38.766;2022-08-01T02:58:35;13.75;;;7.75;;
71947;SDS011;59820;55.076;38.766;2022-08-01T03:01:03;17.17;;;8.33;;
71947;SDS011;59820;55.076;38.766;2022-08-01T03:03:32;14.45;;;7.68;;
71947;SDS011;59820;55.076;38.766;2022-08-01T03:05:59;13.82;;;8.00;;
71947;SDS011;59820;55.076;38.766;2022-08-01T03:08:27;14.07;;;7.63;;
71947;SDS011;59820;55.076;38.766;2022-08-01T03:10:55;16.38;;;7.72;;
71947;SDS011;59820;55.076;38.766;2022-08-01T03:13:25;18.43;;;8.37;;
71947;SDS011;59820;55.076;38.766;2022-08-01T03:15:54;16.48;;;7.50;;
71947;SDS011;59820;55.076;38.766;2022-08-01T03:18:23;16.10;;;7.40;;
71947;SDS011;59820;55.076;38.766;2022-08-01T03:20:50;14.38;;;7.35;;
71947;SDS011;59820;55.076;38.766;2022-08-01T03:23:19;13.48;;;7.20;;
71947;SDS011;59820;55.076;38.766;2022-08-01T03:25:47;15.60;;;7.07;;
71947;SDS011;59820;55.076;38.766;2022-08-01T03:28:17;13.43;;;6.90;;
71947;SDS011;59820;55.076;38.766;2022-08-01T03:30:47;14.38;;;6.93;;
71947;SDS011;59820;55.076;38.766;2022-08-01T03:33:15;13.60;;;6.72;;
71947;SDS011;59820;55.076;38.766;2022-08-01T03:35:47;13.75;;;6.95;;
71947;SDS011;59820;55.076;38.766;2022-08-01T03:38:21;15.37;;;7.10;;
71947;SDS011;59820;55.076;38.766;2022-08-01T03:41:32;13.73;;;7.65;;
71947;SDS011;59820;55.076;38.766;2022-08-01T03:43:45;12.80;;;6.50;;
71947;SDS011;59820;55.076;38.766;2022-08-01T03:46:17;17.95;;;7.15;;
71947;SDS011;59820;55.076;38.766;2022-08-01T03:48:56;15.23;;;6.82;;
71947;SDS011;59820;55.076;38.766;2022-08-01T03:51:26;13.07;;;6.93;;
71947;SDS011;59820;55.076;38.766;2022-08-01T03:53:53;12.57;;;5.68;;
71947;SDS011;59820;55.076;38.766;2022-08-01T03:56:21;13.40;;;5.90;;
71947;SDS011;59820;55.076;38.766;2022-08-01T03:58:49;10.43;;;5.45;;
71947;SDS011;59820;55.076;38.766;2022-08-01T04:01:16;10.43;;;5.50;;
71947;SDS011;59820;55.076;38.766;2022-08-01T04:03:46;13.33;;;6.00;;
71947;SDS011;59820;55.076;38.766;2022-08-01T04:06:12;8.57;;;5.13;;
71947;SDS011;59820;55.076;38.766;2022-08-01T04:08:43;9.27;;;5.40;;
71947;SDS011;59820;55.076;38.766;2022-08-01T04:11:23;11.70;;;5.13;;
71947;SDS011;59820;55.076;38.766;2022-08-01T04:13:51;8.20;;;5.20;;
71947;SDS011;59820;55.076;38.766;2022-08-01T04:16:23;12.43;;;5.20;;
71947;SDS011;59820;55.076;38.766;2022-08-01T04:18:55;12.00;;;5.43;;
71947;SDS011;59820;55.076;38.766;2022-08-01T04:21:24;10.05;;;5.65;;
71947;SDS011;59820;55.076;38.766;2022-08-01T04:23:59;11.85;;;6.45;;
71947;SDS011;59820;55.076;38.766;2022-08-01T04:26:31;15.52;;;6.20;;
71947;SDS011;59820;55.076;38.766;2022-08-01T04:29:00;14.27;;;6.23;;
71947;SDS011;59820;55.076;38.766;2022-08-01T04:31:30;11.02;;;5.93;;
71947;SDS011;59820;55.076;38.766;2022-08-01T04:33:58;9.20;;;5.40;;
71947;SDS011;59820;55.076;38.766;2022-08-01T04:36:27;11.90;;;6.10;;
71947;SDS011;59820;55.076;38.766;2022-08-01T04:38:56;13.13;;;6.00;;
71947;SDS011;59820;55.076;38.766;2022-08-01T04:41:26;9.33;;;5.13;;
71947;SDS011;59820;55.076;38.766;2022-08-01T04:43:55;7.00;;;4.38;;
71947;SDS011;59820;55.076;38.766;2022-08-01T04:46:24;9.10;;;4.25;;
71947;SDS011;59820;55.076;38.766;2022-08-01T04:48:59;9.32;;;4.22;;
71947;SDS011;59820;55.076;38.766;2022-08-01T04:51:26;10.20;;;4.18;;
71947;SDS011;59820;55.076;38.766;2022-08-01T04:53:54;8.17;;;4.10;;
71947;SDS011;59820;55.076;38.766;2022-08-01T04:56:22;7.47;;;4.28;;
71947;SDS011;59820;55.076;38.766;2022-08-01T04:58:48;10.73;;;5.45;;
71947;SDS011;59820;55.076;38.766;2022-08-01T05:01:37;10.82;;;4.18;;
71947;SDS011;59820;55.076;38.766;2022-08-01T05:04:03;10.20;;;4.10;;
71947;SDS011;59820;55.076;38.766;2022-08-01T05:06:29;7.97;;;3.63;;
71947;SDS011;59820;55.076;38.766;2022-08-01T05:08:55;10.13;;;4.03;;
71947;SDS011;59820;55.076;38.766;2022-08-01T05:11:21;6.90;;;3.80;;
71947;SDS011;59820;55.076;38.766;2022-08-01T05:13:47;7.20;;;3.47;;
71947;SDS011;59820;55.076;38.766;2022-08-01T05:16:14;7.95;;;3.63;;
71947;SDS011;59820;55.076;38.766;2022-08-01T05:18:40;6.78;;;3.47;;
71947;SDS011;59820;55.076;38.766;2022-08-01T05:21:06;9.88;;;3.72;;
71947;SDS011;59820;55.076;38.766;2022-08-01T05:23:32;11.27;;;4.97;;
71947;SDS011;59820;55.076;38.766;2022-08-01T05:25:58;9.60;;;4.20;;
71947;SDS011;59820;55.076;38.766;2022-08-01T05:28:24;13.87;;;5.17;;
71947;SDS011;59820;55.076;38.766;2022-08-01T05:30:50;12.38;;;4.60;;
71947;SDS011;59820;55.076;38.766;2022-08-01T05:33:22;13.45;;;4.15;;
71947;SDS011;59820;55.076;38.766;2022-08-01T05:35:48;10.48;;;4.43;;
71947;SDS011;59820;55.076;38.766;2022-08-01T05:38:15;12.53;;;4.40;;
71947;SDS011;59820;55.076;38.766;2022-08-01T05:40:41;14.20;;;5.32;;
71947;SDS011;59820;55.076;38.766;2022-08-01T05:43:07;11.50;;;4.65;;
71947;SDS011;59820;55.076;38.766;2022-08-01T05:45:33;11.65;;;4.43;;
71947;SDS011;59820;55.076;38.766;2022-08-01T05:47:59;15.57;;;4.30;;
71947;SDS011;59820;55.076;38.766;2022-08-01T05:50:25;13.43;;;4.25;;
71947;SDS011;59820;55.076;38.766;2022-08-01T05:52:54;10.75;;;4.20;;
71947;SDS011;59820;55.076;38.766;2022-08-01T05:55:20;10.20;;;4.37;;
71947;SDS011;59820;55.076;38.766;2022-08-01T05:57:46;14.52;;;4.00;;
71947;SDS011;59820;55.076;38.766;2022-08-01T06:00:13;8.82;;;3.50;;
71947;SDS011;59820;55.076;38.766;2022-08-01T06:02:40;11.37;;;5.33;;
71947;SDS011;59820;55.076;38.766;2022-08-01T06:05:08;9.55;;;4.03;;
71947;SDS011;59820;55.076;38.766;2022-08-01T06:07:38;8.77;;;3.88;;
71947;SDS011;59820;55.076;38.766;2022-08-01T06:10:08;10.05;;;4.28;;
71947;SDS011;59820;55.076;38.766;2022-08-01T06:12:34;10.18;;;3.45;;
71947;SDS011;59820;55.076;38.766;2022-08-01T06:15:02;7.57;;;3.90;;
71947;SDS011;59820;55.076;38.766;2022-08-01T06:17:29;11.88;;;3.80;;
71947;SDS011;59820;55.076;38.766;2022-08-01T06:19:54;7.95;;;3.90;;
71947;SDS011;59820;55.076;38.766;2022-08-01T06:22:21;10.93;;;4.47;;
71947;SDS011;59820;55.076;38.766;2022-08-01T06:24:47;9.30;;;3.97;;
71947;SDS011;59820;55.076;38.766;2022-08-01T06:27:13;8.27;;;3.83;;
71947;SDS011;59820;55.076;38.766;2022-08-01T06:29:39;9.02;;;3.92;;
71947;SDS011;59820;55.076;38.766;2022-08-01T06:32:05;11.65;;;3.78;;
71947;SDS011;59820;55.076;38.766;2022-08-01T06:34:32;8.80;;;3.83;;
71947;SDS011;59820;55.076;38.766;2022-08-01T06:36:58;8.38;;;3.60;;
71947;SDS011;59820;55.076;38.766;2022-08-01T06:39:24;15.32;;;5.35;;
71947;SDS011;59820;55.076;38.766;2022-08-01T06:41:50;9.85;;;4.10;;
71947;SDS011;59820;55.076;38.766;2022-08-01T06:44:16;9.60;;;3.63;;
71947;SDS011;59820;55.076;38.766;2022-08-01T06:46:44;10.45;;;3.40;;
71947;SDS011;59820;55.076;38.766;2022-08-01T06:49:10;13.68;;;3.60;;
71947;SDS011;59820;55.076;38.766;2022-08-01T06:51:36;7.40;;;3.50;;
71947;SDS011;59820;55.076;38.766;2022-08-01T06:54:03;8.48;;;3.17;;
71947;SDS011;59820;55.076;38.766;2022-08-01T06:56:29;9.60;;;3.75;;
71947;SDS011;59820;55.076;38.766;2022-08-01T06:58:54;10.07;;;4.00;;
71947;SDS011;59820;55.076;38.766;2022-08-01T07:01:29;10.75;;;3.88;;
71947;SDS011;59820;55.076;38.766;2022-08-01T07:03:55;10.25;;;3.80;;
71947;SDS011;59820;55.076;38.766;2022-08-01T07:06:22;10.88;;;4.60;;
71947;SDS011;59820;55.076;38.766;2022-08-01T07:08:49;12.45;;;3.40;;
71947;SDS011;59820;55.076;38.766;2022-08-01T07:11:15;10.03;;;3.10;;
71947;SDS011;59820;55.076;38.766;2022-08-01T07:13:41;7.65;;;3.30;;
71947;SDS011;59820;55.076;38.766;2022-08-01T07:16:07;6.28;;;3.22;;
71947;SDS011;59820;55.076;38.766;2022-08-01T07:18:33;8.55;;;3.17;;
71947;SDS011;59820;55.076;38.766;2022-08-01T07:20:59;5.60;;;3.17;;
71947;SDS011;59820;55.076;38.766;2022-08-01T07:23:25;11.18;;;2.80;;
71947;SDS011;59820;55.076;38.766;2022-08-01T07:25:51;6.80;;;3.05;;
71947;SDS011;59820;55.076;38.766;2022-08-01T07:28:18;9.73;;;3.17;;
71947;SDS011;59820;55.076;38.766;2022-08-01T07:30:44;9.40;;;3.43;;
71947;SDS011;59820;55.076;38.766;2022-08-01T07:33:10;8.63;;;3.10;;
71947;SDS011;59820;55.076;38.766;2022-08-01T07:35:36;7.72;;;3.00;;
71947;SDS011;59820;55.076;38.766;2022-08-01T07:38:04;5.88;;;2.90;;
71947;SDS011;59820;55.076;38.766;2022-08-01T07:40:30;8.50;;;3.20;;
71947;SDS011;59820;55.076;38.766;2022-08-01T07:42:57;8.10;;;3.15;;
71947;SDS011;59820;55.076;38.766;2022-08-01T07:45:23;7.32;;;3.13;;
71947;SDS011;59820;55.076;38.766;2022-08-01T07:47:49;7.18;;;2.90;;
71947;SDS011;59820;55.076;38.766;2022-08-01T07:50:15;7.00;;;3.15;;
71947;SDS011;59820;55.076;38.766;2022-08-01T07:52:42;7.57;;;3.13;;
71947;SDS011;59820;55.076;38.766;2022-08-01T07:55:09;10.25;;;2.80;;
71947;SDS011;59820;55.076;38.766;2022-08-01T07:57:36;5.75;;;3.05;;
71947;SDS011;59820;55.076;38.766;2022-08-01T08:00:03;8.77;;;2.87;;
71947;SDS011;59820;55.076;38.766;2022-08-01T08:02:31;6.45;;;2.92;;
71947;SDS011;59820;55.076;38.766;2022-08-01T08:04:58;8.32;;;2.80;;
71947;SDS011;59820;55.076;38.766;2022-08-01T08:07:23;7.70;;;3.05;;
71947;SDS011;59820;55.076;38.766;2022-08-01T08:09:50;8.67;;;3.30;;
71947;SDS011;59820;55.076;38.766;2022-08-01T08:12:16;7.38;;;3.33;;
71947;SDS011;59820;55.076;38.766;2022-08-01T08:14:41;7.85;;;2.85;;
71947;SDS011;59820;55.076;38.766;2022-08-01T08:17:08;6.57;;;2.92;;
71947;SDS011;59820;55.076;38.766;2022-08-01T08:19:34;6.17;;;3.20;;
71947;SDS011;59820;55.076;38.766;2022-08-01T08:22:02;9.65;;;3.22;;
71947;SDS011;59820;55.076;38.766;2022-08-01T08:24:28;7.32;;;3.08;;
71947;SDS011;59820;55.076;38.766;2022-08-01T08:26:55;5.32;;;2.63;;
71947;SDS011;59820;55.076;38.766;2022-08-01T08:29:23;6.73;;;3.30;;
71947;SDS011;59820;55.076;38.766;2022-08-01T08:31:51;7.28;;;2.90;;
71947;SDS011;59820;55.076;38.766;2022-08-01T08:34:18;5.15;;;2.60;;
71947;SDS011;59820;55.076;38.766;2022-08-01T08:36:45;4.93;;;2.70;;
71947;SDS011;59820;55.076;38.766;2022-08-01T08:39:11;5.97;;;2.95;;
71947;SDS011;59820;55.076;38.766;2022-08-01T08:41:37;5.43;;;2.90;;
71947;SDS011;59820;55.076;38.766;2022-08-01T08:44:04;5.57;;;2.90;;
71947;SDS011;59820;55.076;38.766;2022-08-01T08:46:32;21.95;;;9.80;;
71947;SDS011;59820;55.076;38.766;2022-08-01T08:49:00;5.50;;;3.15;;
71947;SDS011;59820;55.076;38.766;2022-08-01T08:51:27;14.35;;;6.05;;
71947;SDS011;59820;55.076;38.766;2022-08-01T08:53:56;8.63;;;3.67;;
71947;SDS011;59820;55.076;38.766;2022-08-01T08:56:24;7.07;;;2.88;;
71947;SDS011;59820;55.076;38.766;2022-08-01T08:58:50;8.27;;;3.38;;
71947;SDS011;59820;55.076;38.766;2022-08-01T09:01:17;8.70;;;3.28;;
71947;SDS011;59820;55.076;38.766;2022-08-01T09:03:43;7.13;;;3.58;;
71947;SDS011;59820;55.076;38.766;2022-08-01T09:06:10;7.90;;;3.37;;
71947;SDS011;59820;55.076;38.766;2022-08-01T09:08:36;8.40;;;4.95;;
71947;SDS011;59820;55.076;38.766;2022-08-01T09:11:03;8.13;;;3.25;;
71947;SDS011;59820;55.076;38.766;2022-08-01T09:13:29;9.38;;;4.38;;
71947;SDS011;59820;55.076;38.766;2022-08-01T09:15:55;10.68;;;4.97;;
71947;SDS011;59820;55.076;38.766;2022-08-01T09:18:32;9.03;;;4.20;;
71947;SDS011;59820;55.076;38.766;2022-08-01T09:21:09;9.48;;;3.78;;
71947;SDS011;59820;55.076;38.766;2022-08-01T09:23:40;8.23;;;3.50;;
71947;SDS011;59820;55.076;38.766;2022-08-01T09:26:21;10.30;;;3.10;;
71947;SDS011;59820;55.076;38.766;2022-08-01T09:28:55;5.95;;;3.03;;
71947;SDS011;59820;55.076;38.766;2022-08-01T09:31:21;10.27;;;3.30;;
71947;SDS011;59820;55.076;38.766;2022-08-01T09:33:54;5.07;;;3.00;;
71947;SDS011;59820;55.076;38.766;2022-08-01T09:36:23;7.60;;;4.78;;
71947;SDS011;59820;55.076;38.766;2022-08-01T09:38:51;8.35;;;3.40;;
71947;SDS011;59820;55.076;38.766;2022-08-01T09:41:18;12.27;;;4.97;;
71947;SDS011;59820;55.076;38.766;2022-08-01T09:43:57;8.43;;;3.30;;
71947;SDS011;59820;55.076;38.766;2022-08-01T09:46:23;7.43;;;3.47;;
71947;SDS011;59820;55.076;38.766;2022-08-01T09:49:00;10.13;;;3.50;;
71947;SDS011;59820;55.076;38.766;2022-08-01T09:51:33;7.43;;;3.53;;
71947;SDS011;59820;55.076;38.766;2022-08-01T09:54:05;7.77;;;4.20;;
71947;SDS011;59820;55.076;38.766;2022-08-01T09:56:36;11.90;;;7.85;;
71947;SDS011;59820;55.076;38.766;2022-08-01T09:59:03;7.40;;;3.35;;
71947;SDS011;59820;55.076;38.766;2022-08-01T10:01:41;6.93;;;3.40;;
71947;SDS011;59820;55.076;38.766;2022-08-01T10:04:11;6.05;;;3.70;;
71947;SDS011;59820;55.076;38.766;2022-08-01T10:06:40;4.70;;;2.90;;
71947;SDS011;59820;55.076;38.766;2022-08-01T10:09:12;6.22;;;3.30;;
71947;SDS011;59820;55.076;38.766;2022-08-01T10:11:40;8.65;;;4.10;;
71947;SDS011;59820;55.076;38.766;2022-08-01T10:17:25;9.55;;;4.88;;
71947;SDS011;59820;55.076;38.766;2022-08-01T10:19:51;6.53;;;3.90;;
71947;SDS011;59820;55.076;38.766;2022-08-01T10:22:20;7.70;;;4.43;;
71947;SDS011;59820;55.076;38.766;2022-08-01T10:24:50;7.50;;;3.70;;
71947;SDS011;59820;55.076;38.766;2022-08-01T10:27:20;10.52;;;5.60;;
71947;SDS011;59820;55.076;38.766;2022-08-01T10:30:00;7.45;;;4.43;;
71947;SDS011;59820;55.076;38.766;2022-08-01T10:32:33;7.77;;;5.00;;
71947;SDS011;59820;55.076;38.766;2022-08-01T10:35:01;9.95;;;4.55;;
71947;SDS011;59820;55.076;38.766;2022-08-01T10:37:29;7.40;;;4.30;;
71947;SDS011;59820;55.076;38.766;2022-08-01T10:39:58;6.90;;;4.10;;
71947;SDS011;59820;55.076;38.766;2022-08-01T10:42:24;6.20;;;3.70;;
71947;SDS011;59820;55.076;38.766;2022-08-01T10:44:51;5.43;;;3.97;;
71947;SDS011;59820;55.076;38.766;2022-08-01T10:47:18;6.18;;;3.90;;
71947;SDS011;59820;55.076;38.766;2022-08-01T10:49:56;9.00;;;3.80;;
71947;SDS011;59820;55.076;38.766;2022-08-01T10:52:33;5.63;;;3.85;;
71947;SDS011;59820;55.076;38.766;2022-08-01T10:55:06;9.50;;;4.25;;
71947;SDS011;59820;55.076;38.766;2022-08-01T10:57:43;9.13;;;5.20;;
71947;SDS011;59820;55.076;38.766;2022-08-01T11:00:20;9.40;;;5.22;;
71947;SDS011;59820;55.076;38.766;2022-08-01T11:02:57;8.90;;;5.20;;
71947;SDS011;59820;55.076;38.766;2022-08-01T11:05:27;9.18;;;5.30;;
71947;SDS011;59820;55.076;38.766;2022-08-01T11:07:55;8.07;;;5.00;;
71947;SDS011;59820;55.076;38.766;2022-08-01T11:12:58;8.50;;;5.00;;
71947;SDS011;59820;55.076;38.766;2022-08-01T11:15:28;10.02;;;5.30;;
71947;SDS011;59820;55.076;38.766;2022-08-01T11:17:54;7.53;;;4.50;;
71947;SDS011;59820;55.076;38.766;2022-08-01T11:30:45;5.22;;;3.92;;
71947;SDS011;59820;55.076;38.766;2022-08-01T11:38:48;7.72;;;4.57;;
71947;SDS011;59820;55.076;38.766;2022-08-01T11:41:36;6.88;;;4.07;;
71947;SDS011;59820;55.076;38.766;2022-08-01T11:44:06;7.20;;;4.70;;
71947;SDS011;59820;55.076;38.766;2022-08-01T11:54:33;6.70;;;4.30;;
71947;SDS011;59820;55.076;38.766;2022-08-01T11:57:03;6.45;;;3.63;;
71947;SDS011;59820;55.076;38.766;2022-08-01T11:59:38;7.32;;;4.25;;
71947;SDS011;59820;55.076;38.766;2022-08-01T12:02:15;6.63;;;4.90;;
71947;SDS011;59820;55.076;38.766;2022-08-01T12:07:27;7.90;;;4.90;;
71947;SDS011;59820;55.076;38.766;2022-08-01T12:09:59;6.32;;;3.95;;
71947;SDS011;59820;55.076;38.766;2022-08-01T12:12:30;6.88;;;3.80;;
71947;SDS011;59820;55.076;38.766;2022-08-01T12:14:58;4.77;;;4.07;;
71947;SDS011;59820;55.076;38.766;2022-08-01T12:17:32;5.13;;;4.28;;
71947;SDS011;59820;55.076;38.766;2022-08-01T12:20:03;6.75;;;4.80;;
71947;SDS011;59820;55.076;38.766;2022-08-01T12:22:35;6.80;;;4.70;;
71947;SDS011;59820;55.076;38.766;2022-08-01T12:25:20;5.93;;;4.50;;
71947;SDS011;59820;55.076;38.766;2022-08-01T12:27:47;6.17;;;4.90;;
71947;SDS011;59820;55.076;38.766;2022-08-01T12:30:14;5.70;;;4.00;;
71947;SDS011;59820;55.076;38.766;2022-08-01T12:32:46;13.88;;;3.85;;
71947;SDS011;59820;55.076;38.766;2022-08-01T12:35:14;6.53;;;3.78;;
71947;SDS011;59820;55.076;38.766;2022-08-01T12:37:43;7.22;;;4.63;;
71947;SDS011;59820;55.076;38.766;2022-08-01T12:40:23;6.47;;;4.80;;
71947;SDS011;59820;55.076;38.766;2022-08-01T12:42:56;9.27;;;4.32;;
71947;SDS011;59820;55.076;38.766;2022-08-01T12:45:27;7.22;;;4.05;;
71947;SDS011;59820;55.076;38.766;2022-08-01T12:47:56;8.60;;;4.25;;
71947;SDS011;59820;55.076;38.766;2022-08-01T12:50:25;9.45;;;3.08;;
71947;SDS011;59820;55.076;38.766;2022-08-01T12:52:54;5.60;;;2.80;;
71947;SDS011;59820;55.076;38.766;2022-08-01T12:55:24;7.18;;;2.70;;
71947;SDS011;59820;55.076;38.766;2022-08-01T12:58:13;8.85;;;3.30;;
71947;SDS011;59820;55.076;38.766;2022-08-01T13:00:38;8.55;;;4.50;;
71947;SDS011;59820;55.076;38.766;2022-08-01T13:03:18;5.07;;;3.80;;
71947;SDS011;59820;55.076;38.766;2022-08-01T13:05:55;5.33;;;3.87;;
71947;SDS011;59820;55.076;38.766;2022-08-01T13:08:24;8.00;;;4.22;;
71947;SDS011;59820;55.076;38.766;2022-08-01T13:11:03;8.00;;;3.80;;
71947;SDS011;59820;55.076;38.766;2022-08-01T13:17:50;7.53;;;3.95;;
71947;SDS011;59820;55.076;38.766;2022-08-01T13:20:22;7.97;;;4.60;;
71947;SDS011;59820;55.076;38.766;2022-08-01T13:22:52;6.18;;;4.22;;
71947;SDS011;59820;55.076;38.766;2022-08-01T13:25:19;9.85;;;4.32;;
71947;SDS011;59820;55.076;38.766;2022-08-01T13:30:49;7.28;;;4.70;;
71947;SDS011;59820;55.076;38.766;2022-08-01T13:33:28;7.00;;;4.80;;
71947;SDS011;59820;55.076;38.766;2022-08-01T13:36:06;6.05;;;4.47;;
71947;SDS011;59820;55.076;38.766;2022-08-01T13:38:32;7.45;;;3.80;;
71947;SDS011;59820;55.076;38.766;2022-08-01T13:41:18;6.25;;;3.70;;
71947;SDS011;59820;55.076;38.766;2022-08-01T13:43:44;6.32;;;3.63;;
71947;SDS011;59820;55.076;38.766;2022-08-01T13:46:10;5.43;;;4.20;;
71947;SDS011;59820;55.076;38.766;2022-08-01T13:48:36;6.20;;;4.10;;
71947;SDS011;59820;55.076;38.766;2022-08-01T13:51:02;6.38;;;3.70;;
71947;SDS011;59820;55.076;38.766;2022-08-01T13:53:28;7.33;;;4.40;;
71947;SDS011;59820;55.076;38.766;2022-08-01T13:56:03;6.88;;;4.50;;
71947;SDS011;59820;55.076;38.766;2022-08-01T13:58:32;5.20;;;3.97;;
71947;SDS011;59820;55.076;38.766;2022-08-01T14:00:58;6.35;;;3.97;;
71947;SDS011;59820;55.076;38.766;2022-08-01T14:03:24;8.27;;;3.58;;
71947;SDS011;59820;55.076;38.766;2022-08-01T14:05:50;4.87;;;3.23;;
71947;SDS011;59820;55.076;38.766;2022-08-01T14:08:16;6.00;;;3.63;;
71947;SDS011;59820;55.076;38.766;2022-08-01T14:10:42;5.78;;;3.42;;
71947;SDS011;59820;55.076;38.766;2022-08-01T14:13:08;4.90;;;3.88;;
71947;SDS011;59820;55.076;38.766;2022-08-01T14:15:34;5.37;;;3.30;;
71947;SDS011;59820;55.076;38.766;2022-08-01T14:18:01;7.10;;;4.95;;
71947;SDS011;59820;55.076;38.766;2022-08-01T14:20:28;5.40;;;4.20;;
71947;SDS011;59820;55.076;38.766;2022-08-01T14:22:54;5.20;;;4.45;;
71947;SDS011;59820;55.076;38.766;2022-08-01T14:25:20;8.97;;;3.83;;
71947;SDS011;59820;55.076;38.766;2022-08-01T14:27:46;6.75;;;3.53;;
71947;SDS011;59820;55.076;38.766;2022-08-01T14:30:13;5.95;;;3.60;;
71947;SDS011;59820;55.076;38.766;2022-08-01T14:32:39;5.50;;;3.30;;
71947;SDS011;59820;55.076;38.766;2022-08-01T14:35:05;5.17;;;3.30;;
71947;SDS011;59820;55.076;38.766;2022-08-01T14:37:32;5.72;;;4.00;;
71947;SDS011;59820;55.076;38.766;2022-08-01T14:40:01;6.47;;;3.53;;
71947;SDS011;59820;55.076;38.766;2022-08-01T14:42:32;5.88;;;3.40;;
71947;SDS011;59820;55.076;38.766;2022-08-01T14:45:03;7.17;;;3.70;;
71947;SDS011;59820;55.076;38.766;2022-08-01T14:47:35;5.70;;;3.10;;
71947;SDS011;59820;55.076;38.766;2022-08-01T14:50:05;7.00;;;3.25;;
71947;SDS011;59820;55.076;38.766;2022-08-01T14:52:33;6.60;;;3.45;;
71947;SDS011;59820;55.076;38.766;2022-08-01T14:55:00;7.13;;;3.60;;
71947;SDS011;59820;55.076;38.766;2022-08-01T14:57:30;7.40;;;4.60;;
71947;SDS011;59820;55.076;38.766;2022-08-01T14:59:56;5.35;;;3.58;;
71947;SDS011;59820;55.076;38.766;2022-08-01T15:02:22;7.85;;;3.80;;
71947;SDS011;59820;55.076;38.766;2022-08-01T15:04:48;8.93;;;4.68;;
71947;SDS011;59820;55.076;38.766;2022-08-01T15:07:15;7.63;;;4.10;;
71947;SDS011;59820;55.076;38.766;2022-08-01T15:09:42;13.83;;;8.20;;
71947;SDS011;59820;55.076;38.766;2022-08-01T15:12:09;10.07;;;6.22;;
71947;SDS011;59820;55.076;38.766;2022-08-01T15:14:36;7.63;;;5.18;;
71947;SDS011;59820;55.076;38.766;2022-08-01T15:19:47;5.80;;;3.25;;
71947;SDS011;59820;55.076;38.766;2022-08-01T15:22:14;7.53;;;3.40;;
71947;SDS011;59820;55.076;38.766;2022-08-01T15:24:41;6.97;;;3.20;;
71947;SDS011;59820;55.076;38.766;2022-08-01T15:27:08;6.88;;;3.80;;
71947;SDS011;59820;55.076;38.766;2022-08-01T15:29:34;9.98;;;6.43;;
71947;SDS011;59820;55.076;38.766;2022-08-01T15:32:04;16.55;;;13.75;;